createdAt,value
2023-04-14T00:02:30.637Z,7.40
2023-04-14T00:05:02.613Z,7.40
2023-04-14T00:07:34.372Z,7.30
2023-04-14T00:10:06.682Z,7.30
2023-04-14T00:12:38.422Z,7.30
2023-04-14T00:15:10.571Z,7.30
2023-04-14T00:17:42.434Z,7.20
2023-04-14T00:20:14.181Z,7.20
2023-04-14T00:22:45.969Z,7.20
2023-04-14T00:25:17.818Z,7.30
2023-04-14T00:27:50.615Z,7.30
2023-04-14T00:30:22.404Z,7.30
2023-04-14T00:32:54.200Z,7.30
2023-04-14T00:35:26.087Z,7.30
2023-04-14T00:37:58.501Z,7.20
2023-04-14T00:40:30.954Z,7.20
2023-04-14T00:43:02.703Z,7.20
2023-04-14T00:45:42.768Z,7.20
2023-04-14T00:48:15.748Z,7.20
2023-04-14T00:50:48.035Z,7.30
2023-04-14T00:53:20.289Z,7.20
2023-04-14T00:55:52.062Z,7.20
2023-04-14T00:58:25.308Z,7.10
2023-04-14T01:00:58.538Z,7.20
2023-04-14T01:03:30.406Z,7.20
2023-04-14T01:06:03.099Z,7.20
2023-04-14T01:08:35.179Z,7.10
2023-04-14T01:11:16.972Z,7.10
2023-04-14T01:14:02.244Z,7.10
2023-04-14T01:16:38.619Z,7.10
2023-04-14T01:19:29.454Z,7.10
2023-04-14T01:22:05.683Z,7.00
2023-04-14T01:24:43.563Z,6.90
2023-04-14T01:27:37.281Z,6.80
2023-04-14T01:30:15.953Z,6.80
2023-04-14T01:32:49.852Z,6.80
2023-04-14T01:35:40.701Z,6.80
2023-04-14T01:38:23.728Z,6.90
2023-04-14T01:41:04.349Z,6.90
2023-04-14T01:43:43.964Z,7.00
2023-04-14T01:46:17.483Z,7.00
2023-04-14T01:48:50.304Z,7.00
2023-04-14T01:51:23.383Z,7.00
2023-04-14T01:53:57.974Z,7.00
2023-04-14T01:56:30.618Z,7.00
2023-04-14T01:59:02.851Z,7.10
2023-04-14T02:01:35.886Z,7.00
2023-04-14T02:04:09.058Z,7.00
2023-04-14T02:06:41.933Z,7.00
2023-04-14T02:09:15.351Z,7.00
2023-04-14T02:11:51.118Z,7.00
2023-04-14T02:14:24.771Z,6.90
2023-04-14T02:16:59.095Z,6.90
2023-04-14T02:19:33.385Z,6.90
2023-04-14T02:22:07.540Z,6.90
2023-04-14T02:24:39.738Z,6.90
2023-04-14T02:27:26.411Z,6.80
2023-04-14T02:29:59.862Z,6.80
2023-04-14T02:32:32.698Z,6.80
2023-04-14T02:35:10.551Z,6.80
2023-04-14T02:37:47.816Z,6.80
2023-04-14T02:40:29.789Z,6.90
2023-04-14T02:43:07.561Z,6.90
2023-04-14T02:45:42.329Z,6.90
2023-04-14T02:48:16.067Z,6.90
2023-04-14T02:50:52.931Z,6.80
2023-04-14T02:53:28.237Z,6.70
2023-04-14T02:56:10.341Z,6.70
2023-04-14T02:58:46.633Z,6.60
2023-04-14T03:01:20.223Z,6.60
2023-04-14T03:03:55.024Z,6.50
2023-04-14T03:06:28.570Z,6.50
2023-04-14T03:09:01.373Z,6.60
2023-04-14T03:11:36.736Z,8.00
2023-04-14T03:14:09.096Z,6.70
2023-04-14T03:16:42.202Z,6.70
2023-04-14T03:19:15.336Z,6.70
2023-04-14T03:21:51.014Z,6.70
2023-04-14T03:24:28.465Z,6.60
2023-04-14T03:27:08.781Z,6.60
2023-04-14T03:29:48.578Z,6.50
2023-04-14T03:32:26.472Z,6.40
2023-04-14T03:35:01.396Z,6.40
2023-04-14T03:37:37.919Z,6.40
2023-04-14T03:40:11.397Z,6.40
2023-04-14T03:42:46.237Z,6.50
2023-04-14T03:45:23.819Z,6.50
2023-04-14T03:48:02.557Z,6.60
2023-04-14T03:50:42.937Z,6.60
2023-04-14T03:53:18.013Z,6.60
2023-04-14T03:55:53.579Z,6.50
2023-04-14T03:58:28.393Z,6.50
2023-04-14T04:01:01.947Z,6.40
2023-04-14T04:03:35.722Z,6.50
2023-04-14T04:06:08.042Z,6.50
2023-04-14T04:08:42.434Z,6.40
2023-04-14T04:11:18.779Z,6.40
2023-04-14T04:13:52.837Z,6.40
2023-04-14T04:16:27.713Z,6.30
2023-04-14T04:19:02.307Z,6.30
2023-04-14T04:21:39.947Z,6.30
2023-04-14T04:24:13.413Z,6.30
2023-04-14T04:26:45.498Z,4.80
2023-04-14T04:29:17.898Z,6.30
2023-04-14T04:31:49.950Z,6.20
2023-04-14T04:34:23.478Z,6.10
2023-04-14T04:36:58.323Z,6.10
2023-04-14T04:39:30.486Z,6.10
2023-04-14T04:42:06.784Z,6.10
2023-04-14T04:44:38.543Z,6.10
2023-04-14T04:47:11.744Z,6.10
2023-04-14T04:49:43.472Z,6.20
2023-04-14T04:52:15.295Z,6.20
2023-04-14T04:54:52.108Z,6.20
2023-04-14T04:57:23.905Z,6.30
2023-04-14T04:59:55.611Z,6.30
2023-04-14T05:02:27.627Z,6.30
2023-04-14T05:04:59.496Z,6.30
2023-04-14T05:07:31.739Z,6.30
2023-04-14T05:10:04.039Z,6.30
2023-04-14T05:12:35.883Z,6.30
2023-04-14T05:15:09.706Z,6.30
2023-04-14T05:17:41.480Z,6.40
2023-04-14T05:20:13.374Z,6.30
2023-04-14T05:22:45.951Z,6.30
2023-04-14T05:25:17.842Z,6.40
2023-04-14T05:27:49.573Z,6.40
2023-04-14T05:30:21.350Z,6.40
2023-04-14T05:32:53.105Z,6.50
2023-04-14T05:35:25.314Z,6.50
2023-04-14T05:37:57.125Z,6.50
2023-04-14T05:40:30.041Z,6.40
2023-04-14T05:43:01.906Z,6.50
2023-04-14T05:45:33.960Z,6.60
2023-04-14T05:48:05.790Z,6.60
2023-04-14T05:50:38.399Z,6.60
2023-04-14T05:53:11.864Z,6.60
2023-04-14T05:55:43.690Z,6.60
2023-04-14T05:58:15.443Z,6.60
2023-04-14T06:00:47.276Z,6.60
2023-04-14T06:03:19.360Z,6.60
2023-04-14T06:05:53.033Z,6.70
2023-04-14T06:08:25.425Z,6.80
2023-04-14T06:10:57.540Z,6.80
2023-04-14T06:13:32.056Z,6.90
2023-04-14T06:16:05.067Z,6.90
2023-04-14T06:18:36.825Z,7.00
2023-04-14T06:21:08.556Z,7.00
2023-04-14T06:23:40.542Z,6.90
2023-04-14T06:26:12.517Z,6.90
2023-04-14T06:28:44.496Z,7.00
2023-04-14T06:31:16.283Z,7.00
2023-04-14T06:33:48.297Z,6.90
2023-04-14T06:36:20.014Z,6.90
2023-04-14T06:38:51.717Z,6.90
2023-04-14T06:41:23.482Z,6.90
2023-04-14T06:43:55.426Z,6.90
2023-04-14T06:46:27.280Z,6.90
2023-04-14T06:48:59.198Z,7.00
2023-04-14T06:51:32.520Z,7.00
2023-04-14T06:54:04.508Z,7.10
2023-04-14T06:56:36.327Z,7.00
2023-04-14T06:59:08.043Z,7.00
2023-04-14T07:01:39.821Z,7.00
2023-04-14T07:04:13.976Z,7.00
2023-04-14T07:06:45.751Z,7.00
2023-04-14T07:09:17.856Z,6.90
2023-04-14T07:11:49.653Z,6.90
2023-04-14T07:14:21.466Z,6.90
2023-04-14T07:16:53.570Z,6.90
2023-04-14T07:19:25.622Z,6.90
2023-04-14T07:21:57.362Z,6.90
2023-04-14T07:24:29.092Z,6.90
2023-04-14T07:27:00.865Z,7.00
2023-04-14T07:29:33.346Z,7.00
2023-04-14T07:32:05.314Z,7.10
2023-04-14T07:34:37.156Z,7.10
2023-04-14T07:37:09.821Z,7.20
2023-04-14T07:39:41.614Z,7.20
2023-04-14T07:42:13.318Z,7.20
2023-04-14T07:44:45.292Z,7.30
2023-04-14T07:47:17.014Z,7.40
2023-04-14T07:49:48.754Z,7.30
2023-04-14T07:52:20.464Z,7.50
2023-04-14T07:54:52.187Z,7.60
2023-04-14T07:57:23.981Z,7.60
2023-04-14T07:59:55.860Z,7.60
2023-04-14T08:02:27.701Z,7.70
2023-04-14T08:04:59.606Z,7.70
2023-04-14T08:07:31.999Z,7.70
2023-04-14T08:10:03.941Z,7.70
2023-04-14T08:12:35.713Z,7.60
2023-04-14T08:15:08.004Z,7.60
2023-04-14T08:17:39.770Z,7.60
2023-04-14T08:20:11.672Z,7.60
2023-04-14T08:22:43.433Z,7.70
2023-04-14T08:25:15.601Z,7.80
2023-04-14T08:27:47.356Z,7.80
2023-04-14T08:30:19.111Z,7.80
2023-04-14T08:32:50.916Z,7.80
2023-04-14T08:35:37.437Z,7.80
2023-04-14T08:38:13.105Z,7.90
2023-04-14T08:40:44.915Z,8.10
2023-04-14T08:43:17.458Z,7.80
2023-04-14T08:45:51.671Z,7.80
2023-04-14T08:48:29.038Z,7.90
2023-04-14T08:51:22.742Z,7.90
2023-04-14T08:53:56.029Z,7.80
2023-04-14T08:56:33.398Z,7.90
2023-04-14T08:59:07.749Z,7.90
2023-04-14T09:01:40.158Z,8.00
2023-04-14T09:04:14.292Z,8.00
2023-04-14T09:06:46.238Z,8.10
2023-04-14T09:09:18.236Z,8.10
2023-04-14T09:11:51.616Z,8.10
2023-04-14T09:14:24.051Z,8.00
2023-04-14T09:16:56.464Z,8.00
2023-04-14T09:19:28.807Z,7.90
2023-04-14T09:22:00.748Z,7.90
2023-04-14T09:24:34.299Z,7.90
2023-04-14T09:27:06.810Z,7.90
2023-04-14T09:29:38.955Z,7.90
2023-04-14T09:32:12.462Z,8.00
2023-04-14T09:34:53.456Z,8.00
2023-04-14T09:37:27.123Z,8.00
2023-04-14T09:40:00.186Z,8.10
2023-04-14T09:42:39.999Z,8.20
2023-04-14T09:45:11.741Z,8.30
2023-04-14T09:47:43.986Z,8.30
2023-04-14T09:50:15.776Z,8.30
2023-04-14T09:52:49.377Z,8.30
2023-04-14T09:55:21.176Z,8.40
2023-04-14T09:57:54.556Z,8.40
2023-04-14T10:00:26.309Z,8.40
2023-04-14T10:03:00.585Z,8.40
2023-04-14T10:05:34.500Z,8.40
2023-04-14T10:08:06.965Z,8.40
2023-04-14T10:10:38.793Z,8.50
2023-04-14T10:13:14.931Z,8.40
2023-04-14T10:15:46.777Z,8.50
2023-04-14T10:18:18.720Z,8.50
2023-04-14T10:20:50.655Z,8.60
2023-04-14T10:23:23.072Z,8.60
2023-04-14T10:25:56.026Z,8.70
2023-04-14T10:28:29.203Z,8.60
2023-04-14T10:31:02.819Z,8.60
2023-04-14T10:33:38.098Z,8.60
2023-04-14T10:36:09.930Z,8.60
2023-04-14T10:38:46.697Z,8.50
2023-04-14T10:41:18.421Z,8.50
2023-04-14T10:43:50.189Z,8.50
2023-04-14T10:46:22.903Z,8.50
2023-04-14T10:48:54.779Z,8.50
2023-04-14T10:51:35.733Z,8.60
2023-04-14T10:54:20.420Z,8.60
2023-04-14T10:57:14.462Z,8.60
2023-04-14T10:59:47.354Z,8.70
2023-04-14T11:02:28.167Z,8.80
2023-04-14T11:05:04.628Z,8.80
2023-04-14T11:07:40.302Z,8.80
2023-04-14T11:10:21.451Z,8.80
2023-04-14T11:13:03.907Z,8.80
2023-04-14T11:15:51.846Z,8.90
2023-04-14T11:18:29.679Z,9.00
2023-04-14T11:21:13.412Z,9.00
2023-04-14T11:23:45.432Z,9.00
2023-04-14T11:26:17.340Z,9.00
2023-04-14T11:28:49.042Z,9.00
2023-04-14T11:31:22.976Z,9.00
2023-04-14T11:33:55.453Z,9.00
2023-04-14T11:36:27.991Z,9.00
2023-04-14T11:39:00.259Z,9.10
2023-04-14T11:41:32.852Z,9.10
2023-04-14T11:44:04.700Z,9.20
2023-04-14T11:46:38.768Z,9.30
2023-04-14T11:49:10.609Z,9.50
2023-04-14T11:51:42.372Z,9.60
2023-04-14T11:54:14.136Z,9.70
2023-04-14T11:56:45.902Z,9.80
2023-04-14T11:59:17.660Z,9.80
2023-04-14T12:01:51.411Z,9.90
2023-04-14T12:04:24.377Z,9.90
2023-04-14T12:06:56.514Z,9.80
2023-04-14T12:09:32.041Z,9.90
2023-04-14T12:12:09.809Z,9.90
2023-04-14T12:14:46.816Z,9.90
2023-04-14T12:17:20.377Z,9.60
2023-04-14T12:19:52.325Z,9.40
2023-04-14T12:22:28.378Z,9.10
2023-04-14T12:25:09.753Z,8.60
2023-04-14T12:27:41.816Z,8.30
2023-04-14T12:30:14.188Z,8.30
2023-04-14T12:32:46.435Z,8.40
2023-04-14T12:35:23.644Z,8.50
2023-04-14T12:37:55.385Z,8.70
2023-04-14T12:40:45.781Z,8.70
2023-04-14T12:43:31.371Z,8.70
2023-04-14T12:46:04.556Z,8.70
2023-04-14T12:48:48.222Z,8.60
2023-04-14T12:51:20.812Z,8.70
2023-04-14T12:54:05.999Z,8.80
2023-04-14T12:56:42.091Z,9.00
2023-04-14T12:59:16.585Z,9.00
2023-04-14T13:01:48.338Z,9.00
2023-04-14T13:04:20.167Z,9.00
2023-04-14T13:06:52.536Z,8.90
2023-04-14T13:09:24.305Z,9.00
2023-04-14T13:11:57.741Z,9.10
2023-04-14T13:14:29.533Z,9.00
2023-04-14T13:17:03.068Z,9.10
2023-04-14T13:19:34.893Z,9.00
2023-04-14T13:22:06.665Z,9.10
2023-04-14T13:24:38.553Z,9.00
2023-04-14T13:27:11.548Z,8.90
2023-04-14T13:29:43.357Z,8.90
2023-04-14T13:32:15.365Z,8.90
2023-04-14T13:34:47.136Z,8.90
2023-04-14T13:37:19.212Z,9.00
2023-04-14T13:39:51.177Z,9.00
2023-04-14T13:42:22.968Z,9.10
2023-04-14T13:44:54.697Z,9.20
2023-04-14T13:47:27.041Z,9.40
2023-04-14T13:49:58.769Z,9.50
2023-04-14T13:52:30.532Z,9.70
2023-04-14T13:55:02.277Z,9.70
2023-04-14T13:57:34.067Z,9.70
2023-04-14T14:00:08.289Z,9.80
2023-04-14T14:02:40.491Z,9.80
2023-04-14T14:05:14.526Z,9.70
2023-04-14T14:07:47.269Z,9.70
2023-04-14T14:10:19.116Z,9.60
2023-04-14T14:12:51.611Z,9.50
2023-04-14T14:15:23.542Z,9.50
2023-04-14T14:17:55.345Z,9.30
2023-04-14T14:20:27.158Z,9.20
2023-04-14T14:22:58.858Z,9.10
2023-04-14T14:25:30.646Z,9.00
2023-04-14T14:28:02.460Z,9.00
2023-04-14T14:30:34.217Z,8.90
2023-04-14T14:33:05.998Z,8.70
2023-04-14T14:35:38.256Z,8.50
2023-04-14T14:38:09.986Z,8.30
2023-04-14T14:40:42.559Z,8.20
2023-04-14T14:43:14.493Z,8.10
2023-04-14T14:45:46.613Z,8.10
2023-04-14T14:48:18.391Z,8.00
2023-04-14T14:50:50.238Z,8.00
2023-04-14T14:53:21.999Z,8.10
2023-04-14T14:55:53.719Z,8.20
2023-04-14T14:58:25.477Z,8.20
2023-04-14T15:00:57.212Z,8.30
2023-04-14T15:03:29.209Z,8.30
2023-04-14T15:06:01.052Z,8.30
2023-04-14T15:08:33.049Z,8.30
2023-04-14T15:11:05.010Z,8.30
2023-04-14T15:13:36.795Z,8.30
2023-04-14T15:16:08.723Z,8.20
2023-04-14T15:18:40.489Z,8.20
2023-04-14T15:21:12.261Z,8.30
2023-04-14T15:23:45.531Z,8.40
2023-04-14T15:26:17.519Z,8.40
2023-04-14T15:28:49.255Z,8.50
2023-04-14T15:31:21.166Z,8.60
2023-04-14T15:33:54.692Z,8.70
2023-04-14T15:36:27.436Z,8.80
2023-04-14T15:38:59.176Z,8.90
2023-04-14T15:41:30.936Z,8.80
2023-04-14T15:44:02.899Z,8.80
2023-04-14T15:46:34.904Z,8.70
2023-04-14T15:49:06.725Z,8.70
2023-04-14T15:51:38.472Z,8.60
2023-04-14T15:54:10.183Z,8.50
2023-04-14T15:56:42.045Z,8.50
2023-04-14T15:59:13.779Z,8.50
2023-04-14T16:01:46.376Z,8.50
2023-04-14T16:04:18.553Z,8.60
2023-04-14T16:06:50.550Z,8.60
2023-04-14T16:09:22.352Z,8.60
2023-04-14T16:11:54.073Z,8.50
2023-04-14T16:14:25.854Z,8.60
2023-04-14T16:16:57.642Z,8.60
2023-04-14T16:19:29.398Z,8.60
2023-04-14T16:22:02.722Z,8.60
2023-04-14T16:24:34.739Z,8.60
2023-04-14T16:27:06.731Z,8.60
2023-04-14T16:29:38.442Z,8.60
2023-04-14T16:32:10.224Z,8.60
2023-04-14T16:34:42.078Z,8.50
2023-04-14T16:37:13.824Z,8.60
2023-04-14T16:39:46.262Z,8.50
2023-04-14T16:42:18.712Z,8.50
2023-04-14T16:44:56.029Z,8.50
2023-04-14T16:47:27.933Z,8.40
2023-04-14T16:49:59.723Z,8.40
2023-04-14T16:52:31.464Z,8.40
2023-04-14T16:55:03.257Z,8.40
2023-04-14T16:57:35.063Z,8.30
2023-04-14T17:00:07.659Z,8.30
2023-04-14T17:02:40.915Z,8.30
2023-04-14T17:05:15.835Z,8.40
2023-04-14T17:07:47.896Z,8.40
2023-04-14T17:10:19.635Z,8.30
2023-04-14T17:12:52.520Z,8.40
2023-04-14T17:15:24.223Z,8.40
2023-04-14T17:17:56.033Z,8.40
2023-04-14T17:20:28.241Z,8.40
2023-04-14T17:23:00.223Z,8.40
2023-04-14T17:25:35.336Z,8.30
2023-04-14T17:28:07.052Z,8.30
2023-04-14T17:30:38.996Z,8.30
2023-04-14T17:33:11.866Z,8.30
2023-04-14T17:35:43.689Z,8.20
2023-04-14T17:38:15.486Z,8.20
2023-04-14T17:40:47.239Z,8.20
2023-04-14T17:43:19.027Z,8.20
2023-04-14T17:45:51.477Z,8.10
2023-04-14T17:48:23.230Z,8.10
2023-04-14T17:50:55.303Z,8.10
2023-04-14T17:53:27.822Z,8.10
2023-04-14T17:55:59.726Z,8.10
2023-04-14T17:58:31.800Z,8.10
2023-04-14T18:01:04.113Z,8.10
2023-04-14T18:03:36.226Z,8.10
2023-04-14T18:06:09.261Z,8.00
2023-04-14T18:08:41.299Z,8.00
2023-04-14T18:11:13.086Z,8.00
2023-04-14T18:13:44.970Z,8.00
2023-04-14T18:16:18.249Z,8.00
2023-04-14T18:18:50.220Z,8.00
2023-04-14T18:21:21.992Z,7.90
2023-04-14T18:26:29.265Z,7.90
2023-04-14T18:29:01.400Z,8.00
2023-04-14T18:31:33.486Z,8.00
2023-04-14T18:34:05.861Z,8.00
2023-04-14T18:36:38.690Z,7.90
2023-04-14T18:39:10.484Z,7.80
2023-04-14T18:41:43.446Z,7.80
2023-04-14T18:44:16.935Z,7.80
2023-04-14T18:46:48.827Z,7.80
2023-04-14T18:49:20.559Z,7.80
2023-04-14T18:51:53.677Z,7.80
2023-04-14T18:54:25.505Z,7.80
2023-04-14T18:56:57.233Z,7.80
2023-04-14T18:59:29.348Z,7.70
2023-04-14T19:02:01.121Z,7.70
2023-04-14T19:04:32.871Z,7.80
2023-04-14T19:07:04.832Z,7.80
2023-04-14T19:09:37.687Z,7.80
2023-04-14T19:12:18.468Z,7.80
2023-04-14T19:14:59.182Z,7.80
2023-04-14T19:17:34.148Z,7.80
2023-04-14T19:20:07.291Z,7.70
2023-04-14T19:22:39.031Z,7.80
2023-04-14T19:25:10.834Z,7.80
2023-04-14T19:27:43.473Z,7.80
2023-04-14T19:30:15.313Z,7.80
2023-04-14T19:32:47.107Z,7.80
2023-04-14T19:35:18.872Z,7.70
2023-04-14T19:37:55.422Z,7.70
2023-04-14T19:40:27.163Z,7.80
2023-04-14T19:42:59.062Z,7.80
2023-04-14T19:45:30.764Z,7.70
2023-04-14T19:48:16.154Z,7.80
2023-04-14T19:50:55.266Z,7.80
2023-04-14T19:53:27.908Z,7.70
2023-04-14T19:55:59.865Z,7.70
2023-04-14T19:58:32.684Z,7.70
2023-04-14T20:01:05.671Z,7.70
2023-04-14T20:03:37.557Z,7.70
2023-04-14T20:06:10.127Z,7.70
2023-04-14T20:08:42.294Z,7.60
2023-04-14T20:11:15.467Z,7.70
2023-04-14T20:13:47.297Z,7.60
2023-04-14T20:16:19.167Z,7.50
2023-04-14T20:18:51.628Z,7.50
2023-04-14T20:21:23.396Z,7.50
2023-04-14T20:23:55.154Z,7.50
2023-04-14T20:26:27.569Z,7.50
2023-04-14T20:28:59.582Z,7.50
2023-04-14T20:31:31.618Z,7.50
2023-04-14T20:34:04.119Z,7.50
2023-04-14T20:36:37.409Z,7.50
2023-04-14T20:39:09.158Z,7.50
2023-04-14T20:41:41.151Z,7.50
2023-04-14T20:44:12.925Z,7.50
2023-04-14T20:46:44.659Z,7.50
2023-04-14T20:49:16.610Z,7.40
2023-04-14T20:51:48.879Z,7.40
2023-04-14T20:54:20.592Z,7.40
2023-04-14T20:56:52.374Z,7.40
2023-04-14T20:59:24.294Z,7.30
2023-04-14T21:01:56.591Z,7.30
2023-04-14T21:04:28.435Z,7.30
2023-04-14T21:07:00.452Z,7.30
2023-04-14T21:09:32.505Z,7.30
2023-04-14T21:12:15.293Z,7.30
2023-04-14T21:15:42.493Z,7.30
2023-04-14T21:17:39.995Z,7.30
2023-04-14T21:20:12.214Z,7.30
2023-04-14T21:22:43.928Z,7.20
2023-04-14T21:25:15.683Z,7.20
2023-04-14T21:27:47.553Z,7.20
2023-04-14T21:30:19.274Z,7.20
2023-04-14T21:32:51.045Z,7.20
2023-04-14T21:35:22.811Z,7.20
2023-04-14T21:37:54.525Z,7.20
2023-04-14T21:40:26.410Z,7.10
2023-04-14T21:42:58.123Z,7.10
2023-04-14T21:45:29.894Z,7.20
2023-04-14T21:48:02.932Z,7.10
2023-04-14T21:50:34.759Z,7.10
2023-04-14T21:53:06.514Z,7.10
2023-04-14T21:55:38.363Z,7.10
2023-04-14T21:58:10.286Z,7.10
2023-04-14T22:00:42.104Z,7.10
2023-04-14T22:03:13.985Z,7.10
2023-04-14T22:05:45.815Z,7.10
2023-04-14T22:08:18.416Z,7.00
2023-04-14T22:10:50.249Z,7.00
2023-04-14T22:13:22.027Z,7.00
2023-04-14T22:15:55.023Z,7.00
2023-04-14T22:18:27.663Z,7.00
2023-04-14T22:20:59.388Z,7.00
2023-04-14T22:23:31.708Z,7.10
2023-04-14T22:26:03.592Z,7.10
2023-04-14T22:28:35.628Z,7.10
2023-04-14T22:31:07.837Z,7.10
2023-04-14T22:33:39.806Z,7.10
2023-04-14T22:36:11.564Z,7.10
2023-04-14T22:38:47.536Z,7.00
2023-04-14T22:41:19.530Z,7.00
2023-04-14T22:43:51.359Z,7.00
2023-04-14T22:46:23.078Z,6.90
2023-04-14T22:48:56.884Z,6.90
2023-04-14T22:51:28.572Z,6.90
2023-04-14T22:54:00.708Z,6.90
2023-04-14T22:56:32.442Z,7.00
2023-04-14T22:59:04.418Z,7.00
2023-04-14T23:01:36.860Z,7.00
2023-04-14T23:04:08.700Z,7.00
2023-04-14T23:06:40.513Z,7.00
2023-04-14T23:09:12.513Z,7.00
2023-04-14T23:11:44.224Z,7.00
2023-04-14T23:14:16.126Z,6.90
2023-04-14T23:16:48.242Z,6.90
2023-04-14T23:19:20.236Z,6.90
2023-04-14T23:21:52.408Z,6.90
2023-04-14T23:24:24.116Z,6.90
2023-04-14T23:26:56.053Z,6.90
2023-04-14T23:29:27.763Z,6.90
2023-04-14T23:31:59.448Z,6.90
2023-04-14T23:34:31.349Z,7.00
2023-04-14T23:37:03.462Z,7.00
2023-04-14T23:39:35.592Z,7.00
2023-04-14T23:42:07.558Z,6.90
2023-04-14T23:44:39.276Z,6.90
2023-04-14T23:47:11.107Z,7.00
2023-04-14T23:49:42.911Z,7.00
2023-04-14T23:52:14.645Z,6.90
2023-04-14T23:54:46.361Z,6.90
2023-04-14T23:57:18.180Z,7.00
2023-04-14T23:59:49.909Z,7.00
